createdAt,value
2018-08-17T00:01:15.886Z,6.40
2018-08-17T00:03:44.968Z,6.87
2018-08-17T00:06:13.623Z,8.23
2018-08-17T00:08:42.304Z,8.37
2018-08-17T00:11:10.830Z,6.57
2018-08-17T00:13:39.458Z,7.23
2018-08-17T00:16:08.079Z,9.43
2018-08-17T00:18:37.433Z,11.70
2018-08-17T00:21:06.025Z,11.33
2018-08-17T00:23:35.110Z,8.27
2018-08-17T00:26:03.784Z,7.53
2018-08-17T00:28:32.389Z,9.53
2018-08-17T00:31:01.057Z,10.80
2018-08-17T00:33:29.636Z,10.70
2018-08-17T00:35:58.393Z,9.40
2018-08-17T00:38:26.972Z,8.97
2018-08-17T00:40:55.590Z,8.17
2018-08-17T00:43:24.276Z,6.57
2018-08-17T00:45:52.878Z,5.80
2018-08-17T00:48:21.800Z,5.47
2018-08-17T00:50:50.388Z,9.07
2018-08-17T00:53:18.961Z,9.23
2018-08-17T00:55:47.599Z,12.53
2018-08-17T00:58:16.930Z,7.97
2018-08-17T01:00:45.484Z,8.67
2018-08-17T01:03:13.990Z,6.03
2018-08-17T01:05:42.564Z,11.87
2018-08-17T01:08:11.122Z,10.73
2018-08-17T01:10:39.838Z,10.50
2018-08-17T01:13:13.070Z,7.30
2018-08-17T01:15:42.023Z,9.27
2018-08-17T01:18:11.951Z,12.03
2018-08-17T01:20:40.619Z,12.37
2018-08-17T01:23:09.586Z,11.77
2018-08-17T01:25:38.571Z,9.70
2018-08-17T01:28:08.399Z,9.57
2018-08-17T01:30:37.325Z,9.10
2018-08-17T01:33:06.466Z,7.90
2018-08-17T01:35:35.176Z,11.40
2018-08-17T01:38:03.789Z,10.00
2018-08-17T01:40:32.615Z,15.50
2018-08-17T01:43:01.185Z,12.17
2018-08-17T01:45:30.297Z,8.77
2018-08-17T01:47:59.182Z,12.93
2018-08-17T01:50:27.743Z,13.30
2018-08-17T01:52:56.741Z,11.70
2018-08-17T01:55:25.987Z,14.13
2018-08-17T01:57:54.536Z,11.83
2018-08-17T02:00:23.111Z,11.80
2018-08-17T02:02:51.686Z,10.80
2018-08-17T02:05:20.359Z,11.30
2018-08-17T02:07:49.077Z,17.07
2018-08-17T02:10:17.663Z,10.57
2018-08-17T02:12:46.330Z,16.37
2018-08-17T02:15:15.204Z,17.10
2018-08-17T02:17:43.750Z,12.03
2018-08-17T02:20:12.410Z,11.10
2018-08-17T02:22:40.950Z,12.50
2018-08-17T02:25:09.528Z,11.27
2018-08-17T02:27:38.100Z,14.83
2018-08-17T02:30:07.513Z,14.03
2018-08-17T02:32:36.181Z,11.53
2018-08-17T02:35:06.343Z,10.40
2018-08-17T02:37:34.916Z,16.53
2018-08-17T02:40:03.773Z,9.57
2018-08-17T02:42:32.305Z,24.83
2018-08-17T02:45:00.903Z,10.23
2018-08-17T02:47:29.741Z,15.67
2018-08-17T02:49:58.496Z,10.07
2018-08-17T02:52:27.044Z,14.00
2018-08-17T02:54:55.861Z,10.33
2018-08-17T02:57:24.913Z,10.50
2018-08-17T02:59:53.487Z,10.57
2018-08-17T03:02:22.096Z,11.67
2018-08-17T03:04:50.903Z,16.53
2018-08-17T03:07:19.463Z,15.87
2018-08-17T03:09:48.240Z,15.93
2018-08-17T03:12:16.894Z,12.63
2018-08-17T03:14:45.619Z,15.70
2018-08-17T03:17:14.278Z,10.83
2018-08-17T03:19:42.971Z,16.97
2018-08-17T03:22:11.851Z,12.70
2018-08-17T03:24:40.790Z,14.70
2018-08-17T03:27:09.385Z,14.60
2018-08-17T03:29:38.335Z,12.00
2018-08-17T03:32:07.720Z,11.63
2018-08-17T03:34:37.396Z,13.27
2018-08-17T03:37:06.499Z,11.47
2018-08-17T03:39:34.977Z,11.43
2018-08-17T03:42:03.619Z,12.87
2018-08-17T03:44:32.190Z,10.37
2018-08-17T03:47:00.763Z,12.67
2018-08-17T03:49:29.280Z,12.17
2018-08-17T03:51:57.958Z,12.73
2018-08-17T03:54:26.544Z,9.17
2018-08-17T03:56:55.122Z,13.00
2018-08-17T03:59:23.648Z,8.33
2018-08-17T04:01:52.737Z,12.90
2018-08-17T04:04:21.272Z,18.00
2018-08-17T04:06:49.786Z,14.50
2018-08-17T04:09:18.390Z,11.33
2018-08-17T04:11:47.028Z,14.53
2018-08-17T04:14:15.592Z,9.33
2018-08-17T04:16:44.150Z,9.70
2018-08-17T04:19:12.775Z,12.73
2018-08-17T04:21:41.373Z,10.90
2018-08-17T04:24:10.035Z,14.40
2018-08-17T04:26:38.681Z,13.60
2018-08-17T04:29:07.273Z,15.47
2018-08-17T04:31:36.600Z,21.30
2018-08-17T04:34:05.488Z,20.53
2018-08-17T04:36:34.044Z,14.03
2018-08-17T04:39:03.014Z,19.80
2018-08-17T04:41:31.578Z,11.00
2018-08-17T04:44:00.260Z,17.90
2018-08-17T04:46:29.172Z,15.00
2018-08-17T04:48:57.768Z,13.00
2018-08-17T04:51:26.514Z,9.37
2018-08-17T04:53:55.412Z,6.60
2018-08-17T04:56:24.222Z,12.53
2018-08-17T04:58:52.822Z,11.47
2018-08-17T05:01:21.556Z,13.10
2018-08-17T05:03:50.124Z,10.80
2018-08-17T05:06:18.860Z,6.97
2018-08-17T05:08:47.643Z,10.47
2018-08-17T05:11:16.457Z,11.47
2018-08-17T05:13:45.006Z,8.40
2018-08-17T05:16:13.959Z,12.70
2018-08-17T05:18:42.677Z,9.90
2018-08-17T05:21:11.279Z,11.20
2018-08-17T05:23:40.751Z,9.37
2018-08-17T05:26:09.548Z,10.37
2018-08-17T05:28:38.419Z,11.27
2018-08-17T05:31:07.385Z,9.17
2018-08-17T05:33:35.963Z,11.13
2018-08-17T05:36:04.656Z,8.40
2018-08-17T05:38:33.203Z,10.50
2018-08-17T05:41:01.793Z,9.90
2018-08-17T05:43:31.855Z,11.47
2018-08-17T05:46:00.515Z,9.40
2018-08-17T05:48:29.125Z,7.57
2018-08-17T05:50:57.797Z,13.00
2018-08-17T05:53:26.720Z,11.93
2018-08-17T05:55:55.254Z,9.23
2018-08-17T05:58:24.174Z,8.87
2018-08-17T06:00:52.831Z,7.27
2018-08-17T06:03:21.459Z,8.53
2018-08-17T06:05:50.065Z,10.73
2018-08-17T06:08:19.691Z,10.50
2018-08-17T06:10:48.346Z,6.80
2018-08-17T06:13:17.031Z,12.10
2018-08-17T06:15:45.867Z,7.70
2018-08-17T06:18:14.899Z,11.07
2018-08-17T06:20:43.651Z,10.90
2018-08-17T06:23:12.447Z,8.37
2018-08-17T06:25:41.402Z,6.27
2018-08-17T06:28:10.160Z,9.33
2018-08-17T06:30:38.799Z,9.20
2018-08-17T06:33:07.432Z,7.27
2018-08-17T06:35:36.118Z,10.13
2018-08-17T06:38:04.882Z,6.93
2018-08-17T06:40:33.950Z,5.30
2018-08-17T06:43:02.558Z,6.27
2018-08-17T06:45:31.412Z,7.60
2018-08-17T06:48:00.186Z,5.33
2018-08-17T06:50:29.159Z,5.20
2018-08-17T06:52:57.763Z,5.87
2018-08-17T06:55:27.325Z,6.77
2018-08-17T06:57:56.192Z,7.17
2018-08-17T07:00:25.297Z,5.13
2018-08-17T07:02:53.921Z,9.00
2018-08-17T07:05:22.742Z,4.67
2018-08-17T07:07:51.640Z,7.13
2018-08-17T07:10:21.960Z,7.27
2018-08-17T07:12:50.662Z,6.62
2018-08-17T07:15:19.291Z,4.63
2018-08-17T07:17:48.055Z,5.90
2018-08-17T07:20:18.618Z,7.77
2018-08-17T07:22:47.226Z,7.30
2018-08-17T07:25:16.130Z,6.60
2018-08-17T07:27:44.892Z,6.63
2018-08-17T07:30:13.886Z,11.83
2018-08-17T07:32:42.436Z,10.27
2018-08-17T07:35:12.160Z,9.83
2018-08-17T07:37:40.826Z,10.87
2018-08-17T07:40:09.895Z,7.83
2018-08-17T07:42:38.858Z,9.80
2018-08-17T07:45:08.786Z,6.23
2018-08-17T07:47:37.782Z,11.30
2018-08-17T07:50:06.393Z,7.93
2018-08-17T07:52:35.451Z,5.80
2018-08-17T07:55:04.249Z,8.77
2018-08-17T07:57:32.825Z,7.70
2018-08-17T08:00:01.979Z,6.07
2018-08-17T08:02:30.633Z,7.73
2018-08-17T08:04:59.283Z,3.03
2018-08-17T08:07:28.181Z,4.73
2018-08-17T08:09:56.970Z,2.67
2018-08-17T08:12:25.600Z,7.23
2018-08-17T08:14:54.357Z,5.17
2018-08-17T08:17:23.722Z,5.63
2018-08-17T08:20:03.583Z,7.07
2018-08-17T08:22:32.131Z,6.97
2018-08-17T08:25:00.662Z,5.50
2018-08-17T08:27:30.245Z,5.57
2018-08-17T08:29:59.431Z,4.93
2018-08-17T08:32:28.282Z,5.37
2018-08-17T08:34:56.832Z,9.50
2018-08-17T08:37:26.285Z,5.90
2018-08-17T08:39:54.980Z,2.70
2018-08-17T08:42:23.576Z,3.63
2018-08-17T08:44:52.398Z,4.10
2018-08-17T08:47:23.407Z,5.30
2018-08-17T08:49:53.183Z,4.97
2018-08-17T08:52:22.333Z,4.73
2018-08-17T08:54:52.403Z,4.03
2018-08-17T08:57:21.185Z,5.93
2018-08-17T08:59:52.033Z,5.90
2018-08-17T09:02:21.280Z,3.47
2018-08-17T09:04:50.070Z,3.90
2018-08-17T09:07:18.931Z,5.83
2018-08-17T09:09:47.707Z,5.17
2018-08-17T09:12:16.600Z,2.90
2018-08-17T09:14:45.160Z,5.63
2018-08-17T09:17:14.303Z,3.97
2018-08-17T09:19:43.168Z,3.77
2018-08-17T09:22:11.803Z,4.10
2018-08-17T09:24:40.610Z,4.63
2018-08-17T09:27:09.641Z,3.73
2018-08-17T09:29:38.603Z,4.30
2018-08-17T09:32:07.253Z,2.93
2018-08-17T09:34:36.113Z,5.10
2018-08-17T09:37:04.682Z,3.03
2018-08-17T09:39:33.465Z,5.80
2018-08-17T09:42:02.324Z,2.90
2018-08-17T09:44:30.936Z,4.13
2018-08-17T09:46:59.841Z,4.10
2018-08-17T09:49:28.822Z,3.70
2018-08-17T09:51:58.763Z,3.93
2018-08-17T09:54:27.623Z,3.93
2018-08-17T09:56:57.372Z,3.77
2018-08-17T09:59:26.297Z,4.63
2018-08-17T10:02:00.512Z,5.77
2018-08-17T10:04:35.137Z,3.50
2018-08-17T10:07:09.092Z,8.07
2018-08-17T10:09:43.125Z,4.03
2018-08-17T10:12:12.662Z,3.33
2018-08-17T10:14:41.521Z,5.73
2018-08-17T10:17:10.257Z,2.10
2018-08-17T10:19:39.409Z,4.00
2018-08-17T10:22:08.544Z,3.80
2018-08-17T10:24:37.943Z,2.90
2018-08-17T10:27:06.883Z,3.53
2018-08-17T10:29:36.183Z,3.47
2018-08-17T10:32:05.718Z,3.33
2018-08-17T10:34:34.439Z,7.13
2018-08-17T10:37:03.578Z,2.80
2018-08-17T10:39:32.463Z,4.33
2018-08-17T10:42:01.873Z,3.37
2018-08-17T10:44:30.565Z,4.60
2018-08-17T10:46:59.673Z,4.27
2018-08-17T10:49:28.905Z,3.27
2018-08-17T10:51:58.464Z,3.30
2018-08-17T10:54:27.153Z,3.53
2018-08-17T10:56:56.760Z,3.07
2018-08-17T10:59:25.485Z,4.77
2018-08-17T11:01:54.468Z,4.73
2018-08-17T11:04:23.052Z,4.50
2018-08-17T11:06:51.853Z,4.85
2018-08-17T11:09:21.138Z,4.40
2018-08-17T11:11:50.100Z,1.67
2018-08-17T11:14:19.092Z,3.40
2018-08-17T11:16:48.120Z,3.70
2018-08-17T11:19:17.079Z,2.60
2018-08-17T11:21:46.361Z,5.37
2018-08-17T11:24:15.104Z,3.33
2018-08-17T11:26:43.834Z,3.90
2018-08-17T11:29:13.246Z,3.20
2018-08-17T11:31:41.936Z,2.77
2018-08-17T11:34:10.695Z,2.80
2018-08-17T11:36:39.373Z,3.47
2018-08-17T11:39:08.834Z,3.27
2018-08-17T11:41:37.545Z,4.17
2018-08-17T11:44:11.265Z,2.33
2018-08-17T11:46:40.360Z,2.90
2018-08-17T11:49:08.977Z,2.80
2018-08-17T11:51:40.167Z,2.67
2018-08-17T11:54:10.955Z,3.67
2018-08-17T11:56:39.911Z,3.23
2018-08-17T11:59:08.848Z,3.30
2018-08-17T12:01:37.829Z,2.63
2018-08-17T12:04:06.478Z,3.33
2018-08-17T12:06:35.111Z,2.63
2018-08-17T12:09:04.085Z,2.10
2018-08-17T12:11:33.150Z,4.30
2018-08-17T12:14:02.481Z,2.60
2018-08-17T12:16:31.080Z,3.43
2018-08-17T12:18:59.864Z,2.40
2018-08-17T12:21:28.701Z,2.77
2018-08-17T12:23:57.343Z,2.93
2018-08-17T12:26:25.975Z,2.83
2018-08-17T12:28:55.025Z,5.13
2018-08-17T12:31:23.632Z,3.47
2018-08-17T12:33:52.266Z,3.43
2018-08-17T12:36:22.249Z,3.03
2018-08-17T12:38:51.798Z,2.63
2018-08-17T12:41:20.743Z,3.70
2018-08-17T12:43:49.426Z,3.27
2018-08-17T12:46:18.892Z,2.60
2018-08-17T12:48:47.863Z,1.90
2018-08-17T12:51:16.548Z,3.57
2018-08-17T12:53:45.388Z,4.47
2018-08-17T12:56:14.093Z,3.00
2018-08-17T12:58:42.856Z,2.53
2018-08-17T13:01:11.752Z,2.27
2018-08-17T13:03:40.334Z,2.47
2018-08-17T13:06:09.125Z,2.17
2018-08-17T13:08:38.700Z,2.50
2018-08-17T13:11:07.575Z,3.70
2018-08-17T13:13:36.226Z,1.53
2018-08-17T13:16:06.450Z,3.20
2018-08-17T13:18:37.127Z,3.40
2018-08-17T13:21:06.596Z,4.57
2018-08-17T13:23:35.446Z,2.67
2018-08-17T13:26:04.321Z,2.13
2018-08-17T13:28:33.239Z,5.03
2018-08-17T13:31:02.138Z,2.73
2018-08-17T13:33:31.552Z,2.70
2018-08-17T13:36:00.888Z,2.87
2018-08-17T13:38:29.895Z,2.60
2018-08-17T13:40:58.707Z,2.30
2018-08-17T13:43:27.456Z,2.30
2018-08-17T13:45:56.680Z,3.70
2018-08-17T13:48:25.258Z,1.87
2018-08-17T13:50:54.648Z,2.83
2018-08-17T13:53:23.228Z,3.37
2018-08-17T13:55:51.917Z,4.73
2018-08-17T13:58:20.648Z,1.97
2018-08-17T14:00:49.501Z,4.20
2018-08-17T14:03:18.318Z,2.47
2018-08-17T14:05:47.101Z,2.27
2018-08-17T14:08:16.129Z,2.03
2018-08-17T14:10:44.857Z,2.12
2018-08-17T14:13:13.552Z,1.70
2018-08-17T14:15:42.651Z,3.40
2018-08-17T14:18:11.919Z,4.03
2018-08-17T14:20:40.595Z,4.50
2018-08-17T14:23:09.560Z,4.07
2018-08-17T14:25:38.707Z,2.53
2018-08-17T14:28:07.472Z,2.40
2018-08-17T14:30:36.104Z,4.30
2018-08-17T14:33:04.838Z,1.83
2018-08-17T14:35:33.491Z,2.90
2018-08-17T14:38:02.624Z,2.63
2018-08-17T14:40:31.484Z,3.47
2018-08-17T14:43:00.279Z,2.50
2018-08-17T14:45:30.120Z,3.17
2018-08-17T14:47:58.922Z,2.67
2018-08-17T14:50:27.577Z,3.37
2018-08-17T14:52:56.397Z,2.40
2018-08-17T14:55:25.801Z,2.40
2018-08-17T14:57:54.460Z,1.90
2018-08-17T15:00:23.053Z,1.53
2018-08-17T15:02:52.263Z,1.97
2018-08-17T15:05:21.816Z,4.13
2018-08-17T15:07:50.647Z,3.63
2018-08-17T15:10:19.959Z,1.40
2018-08-17T15:12:48.695Z,2.25
2018-08-17T15:15:17.270Z,2.53
2018-08-17T15:17:45.933Z,2.87
2018-08-17T15:20:14.723Z,4.50
2018-08-17T15:22:43.630Z,2.93
2018-08-17T15:25:12.375Z,3.27
2018-08-17T15:27:41.358Z,3.37
2018-08-17T15:30:11.863Z,3.53
2018-08-17T15:32:41.663Z,3.20
2018-08-17T15:35:11.091Z,2.10
2018-08-17T15:37:40.080Z,3.00
2018-08-17T15:40:10.655Z,3.27
2018-08-17T15:42:39.626Z,3.33
2018-08-17T15:45:08.907Z,2.10
2018-08-17T15:47:37.993Z,3.73
2018-08-17T15:50:12.333Z,3.50
2018-08-17T15:52:40.995Z,2.53
2018-08-17T15:55:09.659Z,3.20
2018-08-17T15:57:38.433Z,3.23
2018-08-17T16:00:08.918Z,2.27
2018-08-17T16:02:38.377Z,2.60
2018-08-17T16:05:07.593Z,3.33
2018-08-17T16:07:36.197Z,3.33
2018-08-17T16:10:05.544Z,4.60
2018-08-17T16:12:34.995Z,3.47
2018-08-17T16:15:03.653Z,3.63
2018-08-17T16:17:32.601Z,4.50
2018-08-17T16:20:01.167Z,3.77
2018-08-17T16:22:30.181Z,2.43
2018-08-17T16:24:59.197Z,2.17
2018-08-17T16:27:28.180Z,3.20
2018-08-17T16:29:57.071Z,2.87
2018-08-17T16:32:26.712Z,4.37
2018-08-17T16:34:55.511Z,3.47
2018-08-17T16:37:24.512Z,5.77
2018-08-17T16:39:53.036Z,3.90
2018-08-17T16:42:27.082Z,3.17
2018-08-17T16:44:56.460Z,3.53
2018-08-17T16:47:25.072Z,2.77
2018-08-17T16:49:53.690Z,5.77
2018-08-17T16:52:22.610Z,4.10
2018-08-17T16:54:51.256Z,3.10
2018-08-17T16:57:20.224Z,4.40
2018-08-17T16:59:49.420Z,5.17
2018-08-17T17:02:18.962Z,2.90
2018-08-17T17:04:47.589Z,3.47
2018-08-17T17:07:16.369Z,2.57
2018-08-17T17:09:45.068Z,3.13
2018-08-17T17:12:18.591Z,2.60
2018-08-17T17:14:47.543Z,5.67
2018-08-17T17:17:16.734Z,3.93
2018-08-17T17:19:45.485Z,2.67
2018-08-17T17:22:14.043Z,3.00
2018-08-17T17:24:42.829Z,2.70
2018-08-17T17:27:11.662Z,3.67
2018-08-17T17:29:40.240Z,2.10
2018-08-17T17:32:10.158Z,3.37
2018-08-17T17:34:38.785Z,3.17
2018-08-17T17:37:07.999Z,4.63
2018-08-17T17:39:36.665Z,2.87
2018-08-17T17:42:05.700Z,4.50
2018-08-17T17:44:34.518Z,2.80
2018-08-17T17:47:03.185Z,3.33
2018-08-17T17:49:31.809Z,3.00
2018-08-17T17:52:00.397Z,4.50
2018-08-17T17:54:29.318Z,2.13
2018-08-17T17:57:14.464Z,4.20
2018-08-17T17:59:48.454Z,3.57
2018-08-17T18:02:17.570Z,2.73
2018-08-17T18:04:46.256Z,3.87
2018-08-17T18:07:14.800Z,4.80
2018-08-17T18:09:43.661Z,3.93
2018-08-17T18:12:12.397Z,2.50
2018-08-17T18:14:41.374Z,6.10
2018-08-17T18:17:10.564Z,5.00
2018-08-17T18:19:39.253Z,4.83
2018-08-17T18:22:14.251Z,2.10
2018-08-17T18:24:42.790Z,4.30
2018-08-17T18:27:11.860Z,3.93
2018-08-17T18:29:40.459Z,2.73
2018-08-17T18:32:09.567Z,2.80
2018-08-17T18:34:38.913Z,7.00
2018-08-17T18:37:07.548Z,3.60
2018-08-17T18:39:36.443Z,2.60
2018-08-17T18:42:05.112Z,2.77
2018-08-17T18:44:33.770Z,5.00
2018-08-17T18:47:02.368Z,4.97
2018-08-17T18:49:31.775Z,3.40
2018-08-17T18:52:00.419Z,4.53
2018-08-17T18:54:29.083Z,3.13
2018-08-17T18:56:57.858Z,2.80
2018-08-17T18:59:26.663Z,5.50
2018-08-17T19:01:55.501Z,3.83
2018-08-17T19:04:24.913Z,2.63
2018-08-17T19:06:53.910Z,4.73
2018-08-17T19:09:22.457Z,4.03
2018-08-17T19:11:51.054Z,4.07
2018-08-17T19:14:19.975Z,6.13
2018-08-17T19:16:48.537Z,3.50
2018-08-17T19:19:17.280Z,3.13
2018-08-17T19:21:45.850Z,3.63
2018-08-17T19:24:14.529Z,3.90
2018-08-17T19:26:43.302Z,4.83
2018-08-17T19:29:11.843Z,3.67
2018-08-17T19:31:47.349Z,4.20
2018-08-17T19:34:16.546Z,4.40
2018-08-17T19:36:45.166Z,4.50
2018-08-17T19:39:20.716Z,4.20
2018-08-17T19:41:49.847Z,4.57
2018-08-17T19:44:18.475Z,3.97
2018-08-17T19:46:47.709Z,4.60
2018-08-17T19:49:16.288Z,6.70
2018-08-17T19:51:44.831Z,4.33
2018-08-17T19:54:14.117Z,8.07
2018-08-17T19:56:42.816Z,4.67
2018-08-17T19:59:11.356Z,5.57
2018-08-17T20:01:40.023Z,7.20
2018-08-17T20:04:08.798Z,3.70
2018-08-17T20:06:37.334Z,4.13
2018-08-17T20:09:08.113Z,6.90
2018-08-17T20:11:37.370Z,5.33
2018-08-17T20:14:06.351Z,3.50
2018-08-17T20:16:35.159Z,6.10
2018-08-17T20:19:03.804Z,4.70
2018-08-17T20:21:32.353Z,5.13
2018-08-17T20:24:01.084Z,4.93
2018-08-17T20:26:29.953Z,5.87
2018-08-17T20:28:58.313Z,6.27
2018-08-17T20:31:27.037Z,6.93
2018-08-17T20:33:55.613Z,5.63
2018-08-17T20:36:24.366Z,4.67
2018-08-17T20:38:53.150Z,7.03
2018-08-17T20:41:22.967Z,7.27
2018-08-17T20:43:51.555Z,5.67
2018-08-17T20:46:21.151Z,4.60
2018-08-17T20:48:51.141Z,7.70
2018-08-17T20:51:26.448Z,4.97
2018-08-17T20:53:57.276Z,6.10
2018-08-17T20:56:26.305Z,5.23
2018-08-17T20:58:55.064Z,5.50
2018-08-17T21:01:24.133Z,6.60
2018-08-17T21:03:53.286Z,5.37
2018-08-17T21:06:22.234Z,5.60
2018-08-17T21:08:50.848Z,5.20
2018-08-17T21:11:19.495Z,4.87
2018-08-17T21:13:48.358Z,6.17
2018-08-17T21:16:16.928Z,10.47
2018-08-17T21:18:45.797Z,6.77
2018-08-17T21:21:14.348Z,5.17
2018-08-17T21:23:42.909Z,6.23
2018-08-17T21:26:11.890Z,5.87
2018-08-17T21:28:40.773Z,6.43
2018-08-17T21:31:09.388Z,7.70
2018-08-17T21:33:38.705Z,4.67
2018-08-17T21:36:07.360Z,4.10
2018-08-17T21:38:35.885Z,3.40
2018-08-17T21:41:04.497Z,5.33
2018-08-17T21:43:33.170Z,6.13
2018-08-17T21:46:04.291Z,7.07
2018-08-17T21:48:33.684Z,4.70
2018-08-17T21:51:02.788Z,8.93
2018-08-17T21:53:31.417Z,5.67
2018-08-17T21:56:00.245Z,7.97
2018-08-17T21:58:29.129Z,4.83
2018-08-17T22:00:57.743Z,7.10
2018-08-17T22:03:35.639Z,7.73
2018-08-17T22:06:04.447Z,7.17
2018-08-17T22:08:33.104Z,5.93
2018-08-17T22:11:02.209Z,6.63
2018-08-17T22:13:33.148Z,7.00
2018-08-17T22:16:03.235Z,7.47
2018-08-17T22:18:32.314Z,6.17
2018-08-17T22:21:01.195Z,5.50
2018-08-17T22:23:31.110Z,6.27
2018-08-17T22:25:59.796Z,5.43
2018-08-17T22:28:28.368Z,6.37
2018-08-17T22:30:56.938Z,7.30
2018-08-17T22:33:25.678Z,5.40
2018-08-17T22:35:54.544Z,5.97
2018-08-17T22:38:23.805Z,6.53
2018-08-17T22:40:52.422Z,10.20
2018-08-17T22:43:21.101Z,7.23
2018-08-17T22:45:50.585Z,6.23
2018-08-17T22:48:19.197Z,8.47
2018-08-17T22:50:47.740Z,8.13
2018-08-17T22:53:16.313Z,9.10
2018-08-17T22:55:44.862Z,8.07
2018-08-17T22:58:14.072Z,9.23
2018-08-17T23:00:43.919Z,9.67
2018-08-17T23:03:12.914Z,7.60
2018-08-17T23:05:42.289Z,10.20
2018-08-17T23:08:11.385Z,7.07
2018-08-17T23:10:40.187Z,11.10
2018-08-17T23:13:09.015Z,9.13
2018-08-17T23:15:37.766Z,8.13
2018-08-17T23:18:06.562Z,10.77
2018-08-17T23:20:37.059Z,7.77
2018-08-17T23:23:06.818Z,6.17
2018-08-17T23:25:35.677Z,13.03
2018-08-17T23:28:04.560Z,9.37
2018-08-17T23:30:33.258Z,10.37
2018-08-17T23:33:02.070Z,9.97
2018-08-17T23:35:30.982Z,10.07
2018-08-17T23:37:59.586Z,10.30
2018-08-17T23:40:28.159Z,9.93
2018-08-17T23:42:56.903Z,11.40
2018-08-17T23:45:25.543Z,8.93
2018-08-17T23:47:54.856Z,11.80
2018-08-17T23:50:24.300Z,10.80
2018-08-17T23:52:53.326Z,7.57
2018-08-17T23:55:23.618Z,12.33
2018-08-17T23:57:52.455Z,7.87
